Time;durP1;ratioP1;P1;durP2;ratioP2;P2;SDS_P1;SDS_P2;PMS_P1;PMS_P2;Temp;Humidity;BMP_temperature;BMP_pressure;BME280_temperature;BME280_humidity;BME280_pressure;Samples;Min_cycle;Max_cycle;Signal;HPM_P1;HPM_P2
2022/09/29 00:02:13;;;;;;;7.70;6.97;;;;;;;;;;5111648;28;20056;-75
2022/09/29 00:04:40;;;;;;;6.15;5.55;;;;;;;;;;5111186;27;20088;-74
2022/09/29 00:07:07;;;;;;;5.85;5.25;;;;;;;;;;5113295;27;20126;-74
2022/09/29 00:09:35;;;;;;;5.50;5.10;;;;;;;;;;5114121;27;20146;-75
2022/09/29 00:12:02;;;;;;;7.22;6.60;;;;;;;;;;5114592;27;20035;-75
2022/09/29 00:14:29;;;;;;;5.70;5.20;;;;;;;;;;5109711;28;20155;-74
2022/09/29 00:16:56;;;;;;;5.90;5.40;;;;;;;;;;5109407;28;20126;-75
2022/09/29 00:19:24;;;;;;;5.22;4.82;;;;;;;;;;5109623;27;20043;-75
2022/09/29 00:21:51;;;;;;;8.52;7.80;;;;;;;;;;5120645;27;20054;-75
2022/09/29 00:24:18;;;;;;;6.18;5.68;;;;;;;;;;5131506;27;20146;-75
2022/09/29 00:26:46;;;;;;;9.02;8.20;;;;;;;;;;5110273;27;20039;-74
2022/09/29 00:29:13;;;;;;;5.82;5.40;;;;;;;;;;5092490;28;20075;-75
2022/09/29 00:31:41;;;;;;;5.18;4.78;;;;;;;;;;5109288;28;20047;-75
2022/09/29 00:34:08;;;;;;;5.07;4.45;;;;;;;;;;5110992;28;20075;-74
2022/09/29 00:36:35;;;;;;;4.45;4.05;;;;;;;;;;5109779;28;20122;-74
2022/09/29 00:39:02;;;;;;;5.00;3.45;;;;;;;;;;5111535;27;20069;-75
2022/09/29 00:41:32;;;;;;;7.70;3.35;;;;;;;;;;5108232;27;20628;-75
2022/09/29 00:43:59;;;;;;;4.72;3.50;;;;;;;;;;5102368;28;20104;-74
2022/09/29 00:46:37;;;;;;;3.75;3.42;;;;;;;;;;5101597;28;20490;-74
2022/09/29 00:49:11;;;;;;;5.05;3.25;;;;;;;;;;5110098;28;20411;-74
2022/09/29 00:51:39;;;;;;;4.05;3.40;;;;;;;;;;5106052;28;20130;-74
2022/09/29 00:54:07;;;;;;;4.05;3.67;;;;;;;;;;5112504;27;20070;-75
2022/09/29 00:56:35;;;;;;;4.53;4.18;;;;;;;;;;5129798;27;20031;-74
2022/09/29 00:59:06;;;;;;;5.10;4.50;;;;;;;;;;5121282;27;20101;-74
2022/09/29 01:01:34;;;;;;;4.90;4.35;;;;;;;;;;5109479;28;20097;-74
2022/09/29 01:04:10;;;;;;;5.60;4.60;;;;;;;;;;5110106;28;20128;-74
2022/09/29 01:06:40;;;;;;;5.28;4.88;;;;;;;;;;5110131;28;20530;-74
2022/09/29 01:09:09;;;;;;;5.47;4.97;;;;;;;;;;5108036;27;20039;-74
2022/09/29 01:11:37;;;;;;;6.82;5.28;;;;;;;;;;5125557;27;20138;-74
2022/09/29 01:14:06;;;;;;;5.50;5.07;;;;;;;;;;5127975;27;20092;-74
2022/09/29 01:16:34;;;;;;;5.22;4.82;;;;;;;;;;5109423;28;20046;-74
2022/09/29 01:19:06;;;;;;;5.45;4.97;;;;;;;;;;5109640;28;20047;-74
2022/09/29 01:21:45;;;;;;;5.32;4.80;;;;;;;;;;5109323;28;20035;-74
2022/09/29 01:24:15;;;;;;;5.30;4.90;;;;;;;;;;5106596;27;20508;-74
2022/09/29 01:27:01;;;;;;;4.95;4.47;;;;;;;;;;5119224;27;20046;-74
2022/09/29 01:29:46;;;;;;;5.00;4.63;;;;;;;;;;5089596;28;20044;-74
2022/09/29 01:32:24;;;;;;;4.75;4.28;;;;;;;;;;5107902;28;20044;-74
2022/09/29 01:35:15;;;;;;;4.65;4.35;;;;;;;;;;5109359;28;20088;-74
2022/09/29 01:37:48;;;;;;;5.70;4.43;;;;;;;;;;5109340;28;20473;-74
2022/09/29 01:40:18;;;;;;;4.65;4.28;;;;;;;;;;5108249;28;20047;-74
2022/09/29 01:42:48;;;;;;;4.72;4.30;;;;;;;;;;5107076;27;20039;-74
2022/09/29 01:45:20;;;;;;;9.52;6.13;;;;;;;;;;5112802;27;20501;-74
2022/09/29 01:47:49;;;;;;;6.93;6.32;;;;;;;;;;5088686;28;20040;-74
2022/09/29 01:50:19;;;;;;;7.10;6.50;;;;;;;;;;5087785;28;20084;-74
2022/09/29 01:52:50;;;;;;;5.63;5.13;;;;;;;;;;5088011;28;20051;-74
2022/09/29 01:55:19;;;;;;;5.55;5.05;;;;;;;;;;5100605;28;20034;-74
2022/09/29 01:58:06;;;;;;;5.93;3.80;;;;;;;;;;5110247;27;20784;-74
2022/09/29 02:00:37;;;;;;;5.38;4.30;;;;;;;;;;5116290;27;20035;-74
2022/09/29 02:03:11;;;;;;;4.85;3.90;;;;;;;;;;5109568;28;20051;-74
2022/09/29 02:05:42;;;;;;;5.15;4.05;;;;;;;;;;5090763;28;20039;-74
2022/09/29 02:08:13;;;;;;;4.30;4.00;;;;;;;;;;5108930;28;20522;-74
2022/09/29 02:10:46;;;;;;;4.85;4.45;;;;;;;;;;5109212;28;20043;-75
2022/09/29 02:13:15;;;;;;;5.25;4.47;;;;;;;;;;5107061;28;20035;-74
2022/09/29 02:15:45;;;;;;;4.93;4.03;;;;;;;;;;5110213;27;20027;-74
2022/09/29 02:18:14;;;;;;;4.18;3.88;;;;;;;;;;5124197;27;20043;-74
2022/09/29 02:20:41;;;;;;;4.75;3.20;;;;;;;;;;5108570;28;20043;-74
2022/09/29 02:23:08;;;;;;;8.43;4.05;;;;;;;;;;5110308;28;20158;-74
2022/09/29 02:25:37;;;;;;;5.78;3.88;;;;;;;;;;5108714;28;20093;-75
2022/09/29 02:28:05;;;;;;;3.97;3.33;;;;;;;;;;5107454;28;20473;-74
2022/09/29 02:30:33;;;;;;;3.90;3.60;;;;;;;;;;5102602;27;20051;-75
2022/09/29 02:33:01;;;;;;;5.43;4.07;;;;;;;;;;5110669;27;20142;-74
2022/09/29 02:35:34;;;;;;;3.92;3.53;;;;;;;;;;5104133;28;20413;-74
2022/09/29 02:38:05;;;;;;;3.75;3.45;;;;;;;;;;5088526;28;20040;-74
2022/09/29 02:40:41;;;;;;;6.68;4.47;;;;;;;;;;5088466;28;20485;-74
2022/09/29 02:43:12;;;;;;;8.07;4.40;;;;;;;;;;5096755;28;20414;-74
2022/09/29 02:45:58;;;;;;;7.30;3.65;;;;;;;;;;5101168;28;20143;-75
2022/09/29 02:48:42;;;;;;;6.90;4.05;;;;;;;;;;5105382;28;20047;-75
2022/09/29 02:51:12;;;;;;;7.63;4.43;;;;;;;;;;5111180;28;20136;-75
2022/09/29 02:53:47;;;;;;;5.60;4.13;;;;;;;;;;5099074;28;20044;-74
2022/09/29 02:56:26;;;;;;;3.53;3.22;;;;;;;;;;5093471;28;20052;-74
2022/09/29 02:58:57;;;;;;;8.13;4.30;;;;;;;;;;5105831;28;20036;-75
2022/09/29 03:01:25;;;;;;;6.82;4.80;;;;;;;;;;5106368;28;20680;-75
2022/09/29 03:03:52;;;;;;;4.47;4.07;;;;;;;;;;5089093;28;20043;-75
2022/09/29 03:06:20;;;;;;;7.20;5.07;;;;;;;;;;5119015;28;20092;-76
2022/09/29 03:08:47;;;;;;;4.68;4.28;;;;;;;;;;5107170;28;20155;-76
2022/09/29 03:11:14;;;;;;;4.03;3.72;;;;;;;;;;5099246;28;20043;-76
2022/09/29 03:13:42;;;;;;;4.43;4.03;;;;;;;;;;5099912;28;20146;-76
2022/09/29 03:16:10;;;;;;;7.90;5.40;;;;;;;;;;5110419;28;20088;-76
2022/09/29 03:18:38;;;;;;;6.28;4.68;;;;;;;;;;5110932;28;20057;-75
2022/09/29 03:21:05;;;;;;;7.00;5.20;;;;;;;;;;5109610;27;20577;-76
2022/09/29 03:23:32;;;;;;;7.35;5.38;;;;;;;;;;5127673;27;20070;-76
2022/09/29 03:25:59;;;;;;;5.10;4.55;;;;;;;;;;5128511;27;20062;-75
2022/09/29 03:28:26;;;;;;;8.35;6.30;;;;;;;;;;5112147;28;20047;-75
2022/09/29 03:30:54;;;;;;;7.22;6.53;;;;;;;;;;5112195;28;20096;-75
2022/09/29 03:33:21;;;;;;;7.45;6.75;;;;;;;;;;5110730;28;20039;-75
2022/09/29 03:35:49;;;;;;;7.25;6.13;;;;;;;;;;5107519;28;20052;-76
2022/09/29 03:38:16;;;;;;;7.25;6.55;;;;;;;;;;5097416;28;20079;-75
2022/09/29 03:40:43;;;;;;;8.90;5.88;;;;;;;;;;5132100;27;20047;-75
2022/09/29 03:43:11;;;;;;;6.53;5.85;;;;;;;;;;5117665;27;20038;-75
2022/09/29 03:45:38;;;;;;;5.95;5.45;;;;;;;;;;5110928;28;20476;-75
2022/09/29 03:48:05;;;;;;;6.35;5.57;;;;;;;;;;5111862;28;20043;-75
2022/09/29 03:50:32;;;;;;;6.78;6.10;;;;;;;;;;5111165;28;20056;-75
2022/09/29 03:53:00;;;;;;;6.32;5.72;;;;;;;;;;5109170;27;20039;-76
2022/09/29 03:55:27;;;;;;;5.90;5.40;;;;;;;;;;5108050;28;20433;-76
2022/09/29 03:57:54;;;;;;;5.68;5.22;;;;;;;;;;5109726;28;20127;-76
2022/09/29 04:00:22;;;;;;;5.70;4.63;;;;;;;;;;5096008;28;20048;-75
2022/09/29 04:02:49;;;;;;;5.05;4.55;;;;;;;;;;5111121;28;20122;-75
2022/09/29 04:05:17;;;;;;;4.80;4.32;;;;;;;;;;5111321;28;20462;-76
2022/09/29 04:07:44;;;;;;;4.78;4.25;;;;;;;;;;5111372;27;20046;-76
2022/09/29 04:10:11;;;;;;;4.72;3.72;;;;;;;;;;5124627;27;20162;-76
2022/09/29 04:12:38;;;;;;;4.65;4.18;;;;;;;;;;5109119;27;20613;-75
2022/09/29 04:15:06;;;;;;;4.50;3.40;;;;;;;;;;5109147;27;20123;-77
2022/09/29 04:17:33;;;;;;;4.45;4.05;;;;;;;;;;5115124;27;20126;-76
2022/09/29 04:20:01;;;;;;;8.65;5.43;;;;;;;;;;5108313;27;20066;-76
2022/09/29 04:22:28;;;;;;;5.78;5.18;;;;;;;;;;5114221;27;20067;-76
2022/09/29 04:24:55;;;;;;;5.78;5.25;;;;;;;;;;5103732;27;20043;-75
2022/09/29 04:27:22;;;;;;;5.65;5.15;;;;;;;;;;5105142;27;20058;-76
2022/09/29 04:29:50;;;;;;;5.93;5.40;;;;;;;;;;5105573;27;20400;-76
2022/09/29 04:32:17;;;;;;;8.00;6.88;;;;;;;;;;5110368;27;20515;-75
2022/09/29 04:34:44;;;;;;;9.18;6.63;;;;;;;;;;5112384;27;20042;-75
2022/09/29 04:37:12;;;;;;;8.85;6.43;;;;;;;;;;5113312;27;20510;-75
2022/09/29 04:39:39;;;;;;;7.63;6.93;;;;;;;;;;5106640;27;20887;-75
2022/09/29 04:42:06;;;;;;;9.55;8.55;;;;;;;;;;5116997;27;20084;-75
2022/09/29 04:44:34;;;;;;;7.68;6.93;;;;;;;;;;5125086;27;20573;-75
2022/09/29 04:47:01;;;;;;;5.63;5.13;;;;;;;;;;5114070;27;20123;-75
2022/09/29 04:49:28;;;;;;;8.38;6.90;;;;;;;;;;5106361;27;20096;-78
2022/09/29 04:51:56;;;;;;;7.60;6.82;;;;;;;;;;5106772;27;20459;-75
2022/09/29 04:54:23;;;;;;;9.77;6.07;;;;;;;;;;5100740;28;20035;-75
2022/09/29 04:56:50;;;;;;;8.98;6.45;;;;;;;;;;5099298;27;20147;-75
2022/09/29 04:59:18;;;;;;;9.48;7.20;;;;;;;;;;5095050;27;20460;-76
2022/09/29 05:01:45;;;;;;;8.10;7.13;;;;;;;;;;5097273;28;20039;-75
2022/09/29 05:04:12;;;;;;;6.20;5.45;;;;;;;;;;5110141;27;20043;-75
2022/09/29 05:06:40;;;;;;;12.98;6.93;;;;;;;;;;5095280;28;20121;-74
2022/09/29 05:09:07;;;;;;;12.52;5.90;;;;;;;;;;5096726;27;20048;-76
2022/09/29 05:11:35;;;;;;;10.93;6.68;;;;;;;;;;5102941;27;20101;-76
2022/09/29 05:14:02;;;;;;;18.40;7.03;;;;;;;;;;5110020;27;20043;-74
2022/09/29 05:16:30;;;;;;;9.95;7.82;;;;;;;;;;5112090;27;20035;-74
2022/09/29 05:18:57;;;;;;;20.83;7.38;;;;;;;;;;5108025;27;20127;-75
2022/09/29 05:21:25;;;;;;;14.77;7.70;;;;;;;;;;5107703;27;20039;-76
2022/09/29 05:23:55;;;;;;;14.80;7.45;;;;;;;;;;5099731;28;20417;-76
2022/09/29 05:26:23;;;;;;;6.80;6.18;;;;;;;;;;5103587;28;20055;-76
2022/09/29 05:28:50;;;;;;;11.80;7.15;;;;;;;;;;5102044;27;20040;-75
2022/09/29 05:31:17;;;;;;;7.63;6.88;;;;;;;;;;5100519;27;20089;-76
2022/09/29 05:33:45;;;;;;;7.45;6.75;;;;;;;;;;5108921;27;20127;-75
2022/09/29 05:36:12;;;;;;;15.30;7.00;;;;;;;;;;5096959;28;20134;-76
2022/09/29 05:38:40;;;;;;;11.95;7.57;;;;;;;;;;5113110;27;20074;-76
2022/09/29 05:41:09;;;;;;;19.25;6.40;;;;;;;;;;5099559;27;20031;-75
2022/09/29 05:43:37;;;;;;;19.80;7.97;;;;;;;;;;5120045;27;20040;-75
2022/09/29 05:46:05;;;;;;;7.32;6.57;;;;;;;;;;5120141;27;20035;-76
2022/09/29 05:48:33;;;;;;;8.63;6.47;;;;;;;;;;5109184;27;20454;-76
2022/09/29 05:51:07;;;;;;;8.30;6.35;;;;;;;;;;5123888;27;20424;-75
2022/09/29 05:53:34;;;;;;;7.05;6.35;;;;;;;;;;5120627;27;20059;-76
2022/09/29 05:56:24;;;;;;;8.30;7.45;;;;;;;;;;5106679;28;20042;-75
2022/09/29 05:58:52;;;;;;;7.60;6.80;;;;;;;;;;5081191;27;20060;-75
2022/09/29 06:01:21;;;;;;;11.82;6.95;;;;;;;;;;5097974;27;20060;-75
2022/09/29 06:03:50;;;;;;;12.90;8.35;;;;;;;;;;5100153;28;20123;-76
2022/09/29 06:06:22;;;;;;;12.45;8.70;;;;;;;;;;5110597;27;20139;-75
2022/09/29 06:08:49;;;;;;;13.18;8.90;;;;;;;;;;5111936;27;20099;-75
2022/09/29 06:11:21;;;;;;;10.40;9.30;;;;;;;;;;5113102;27;20059;-75
2022/09/29 06:13:49;;;;;;;8.23;7.43;;;;;;;;;;5110563;28;20118;-76
2022/09/29 06:16:18;;;;;;;6.90;6.35;;;;;;;;;;5112068;27;20120;-74
2022/09/29 06:18:46;;;;;;;6.57;5.95;;;;;;;;;;5116830;27;20040;-76
2022/09/29 06:21:15;;;;;;;5.03;4.53;;;;;;;;;;5098163;28;20092;-75
2022/09/29 06:23:42;;;;;;;5.38;4.88;;;;;;;;;;5097184;27;20043;-74
2022/09/29 06:26:11;;;;;;;5.07;4.63;;;;;;;;;;5098458;28;20043;-75
2022/09/29 06:28:38;;;;;;;5.65;5.13;;;;;;;;;;5100774;28;20093;-75
2022/09/29 06:31:14;;;;;;;6.68;5.45;;;;;;;;;;5099799;28;20028;-75
2022/09/29 06:33:41;;;;;;;7.15;6.45;;;;;;;;;;5114871;27;20064;-77
2022/09/29 06:39:01;;;;;;;7.22;6.32;;;;;;;;;;5103381;28;20089;-74
2022/09/29 06:41:28;;;;;;;8.60;7.43;;;;;;;;;;5102042;28;20065;-75
2022/09/29 06:43:56;;;;;;;8.20;7.40;;;;;;;;;;5100550;28;20122;-76
2022/09/29 06:46:25;;;;;;;7.75;6.95;;;;;;;;;;5107595;28;20046;-75
2022/09/29 06:48:54;;;;;;;8.52;7.13;;;;;;;;;;5105357;28;20580;-75
2022/09/29 06:51:21;;;;;;;8.65;7.90;;;;;;;;;;5106750;28;20088;-75
2022/09/29 06:53:51;;;;;;;10.02;8.93;;;;;;;;;;5100947;28;20127;-84
2022/09/29 06:56:26;;;;;;;7.68;6.88;;;;;;;;;;5104678;28;20126;-75
2022/09/29 06:58:54;;;;;;;10.35;9.02;;;;;;;;;;5104599;28;20064;-75
2022/09/29 07:01:21;;;;;;;8.98;8.18;;;;;;;;;;5112116;28;20236;-76
2022/09/29 07:03:48;;;;;;;9.18;8.30;;;;;;;;;;5099251;28;20048;-75
2022/09/29 07:06:16;;;;;;;10.38;8.40;;;;;;;;;;5102329;28;20036;-75
2022/09/29 07:08:47;;;;;;;8.85;8.05;;;;;;;;;;5093175;28;20055;-75
2022/09/29 07:11:15;;;;;;;9.52;8.63;;;;;;;;;;5100447;28;20130;-75
2022/09/29 07:13:42;;;;;;;10.35;9.13;;;;;;;;;;5092784;28;20512;-75
2022/09/29 07:16:12;;;;;;;9.82;8.82;;;;;;;;;;5070597;28;20131;-76
2022/09/29 07:18:40;;;;;;;10.20;8.70;;;;;;;;;;5085125;28;20043;-75
2022/09/29 07:21:09;;;;;;;8.60;7.75;;;;;;;;;;5101215;28;20043;-76
2022/09/29 07:23:36;;;;;;;9.05;7.88;;;;;;;;;;5112655;28;20051;-75
2022/09/29 07:26:07;;;;;;;7.90;7.20;;;;;;;;;;5113538;28;20040;-76
2022/09/29 07:28:35;;;;;;;6.40;5.90;;;;;;;;;;5106767;28;20127;-77
2022/09/29 07:31:04;;;;;;;5.82;5.32;;;;;;;;;;5105173;28;20052;-83
2022/09/29 07:33:41;;;;;;;6.20;5.80;;;;;;;;;;5104764;28;20166;-76
2022/09/29 07:36:08;;;;;;;6.50;5.78;;;;;;;;;;5103820;28;20051;-76
2022/09/29 07:38:36;;;;;;;6.05;5.60;;;;;;;;;;5105370;28;20032;-77
2022/09/29 07:41:04;;;;;;;6.70;6.10;;;;;;;;;;5104263;28;20079;-76
2022/09/29 07:43:31;;;;;;;6.28;5.68;;;;;;;;;;5100614;28;20044;-74
2022/09/29 07:45:59;;;;;;;5.82;5.43;;;;;;;;;;5087223;28;20040;-76
2022/09/29 07:48:27;;;;;;;5.72;5.22;;;;;;;;;;5086202;28;20052;-78
2022/09/29 07:51:09;;;;;;;5.35;4.88;;;;;;;;;;5086942;28;20059;-76
2022/09/29 07:53:37;;;;;;;5.75;5.35;;;;;;;;;;5096635;28;20075;-75
2022/09/29 07:56:09;;;;;;;6.03;5.25;;;;;;;;;;5107378;28;20093;-78
2022/09/29 07:58:36;;;;;;;4.43;4.13;;;;;;;;;;5108217;28;20077;-77
2022/09/29 08:01:05;;;;;;;4.13;3.90;;;;;;;;;;5106815;28;20184;-78
2022/09/29 08:03:33;;;;;;;5.03;4.68;;;;;;;;;;5111860;28;20343;-76
2022/09/29 08:06:00;;;;;;;5.70;5.20;;;;;;;;;;5110040;28;20075;-77
2022/09/29 08:08:27;;;;;;;5.68;5.13;;;;;;;;;;5111652;28;20138;-76
2022/09/29 08:11:11;;;;;;;5.35;4.95;;;;;;;;;;5110870;28;20036;-76
2022/09/29 08:13:55;;;;;;;5.20;4.80;;;;;;;;;;5105511;28;20071;-76
2022/09/29 08:16:22;;;;;;;5.20;4.80;;;;;;;;;;5099116;28;20218;-76
2022/09/29 08:18:49;;;;;;;4.13;3.83;;;;;;;;;;5102703;28;20130;-77
2022/09/29 08:21:17;;;;;;;4.00;3.80;;;;;;;;;;5147000;22;20119;-72
2022/09/29 08:23:44;;;;;;;3.33;3.13;;;;;;;;;;5103843;28;20512;-73
2022/09/29 08:26:13;;;;;;;3.60;3.40;;;;;;;;;;5091025;28;20063;-75
2022/09/29 08:28:44;;;;;;;3.50;3.08;;;;;;;;;;5055346;28;20052;-78
2022/09/29 08:31:20;;;;;;;3.67;2.83;;;;;;;;;;5089190;28;20146;-75
2022/09/29 08:33:51;;;;;;;4.57;3.25;;;;;;;;;;5088611;28;20036;-75
2022/09/29 08:36:19;;;;;;;2.97;2.65;;;;;;;;;;5088882;28;20047;-74
2022/09/29 08:38:47;;;;;;;2.42;2.22;;;;;;;;;;5070272;28;20082;-75
2022/09/29 08:41:21;;;;;;;2.00;1.90;;;;;;;;;;5086233;28;20138;-75
2022/09/29 08:43:49;;;;;;;2.20;2.10;;;;;;;;;;5087860;28;20153;-74
2022/09/29 08:46:22;;;;;;;2.15;2.05;;;;;;;;;;5088226;28;20074;-74
2022/09/29 08:49:03;;;;;;;2.67;1.70;;;;;;;;;;5087093;28;20131;-74
2022/09/29 08:51:43;;;;;;;1.77;1.67;;;;;;;;;;5088363;28;20055;-75
2022/09/29 08:54:16;;;;;;;1.80;1.70;;;;;;;;;;5106784;28;20063;-75
2022/09/29 08:56:52;;;;;;;1.75;1.65;;;;;;;;;;5108911;28;20461;-75
2022/09/29 08:59:19;;;;;;;1.70;1.63;;;;;;;;;;5109367;28;20122;-76
2022/09/29 09:01:51;;;;;;;1.63;1.50;;;;;;;;;;5106829;28;20504;-74
2022/09/29 09:04:27;;;;;;;2.22;1.33;;;;;;;;;;5107784;28;20118;-75
2022/09/29 09:07:07;;;;;;;1.73;1.30;;;;;;;;;;5106552;28;20117;-75
2022/09/29 09:09:43;;;;;;;1.20;1.10;;;;;;;;;;5106750;28;20048;-75
2022/09/29 09:12:23;;;;;;;0.82;0.82;;;;;;;;;;5107824;28;20071;-75
2022/09/29 09:15:05;;;;;;;1.10;1.00;;;;;;;;;;5106751;28;20127;-72
2022/09/29 09:17:51;;;;;;;1.35;1.10;;;;;;;;;;5106833;28;20048;-75
2022/09/29 09:20:24;;;;;;;1.35;0.80;;;;;;;;;;5108547;28;20066;-75
2022/09/29 09:22:56;;;;;;;0.68;0.68;;;;;;;;;;5107390;28;20126;-75
2022/09/29 09:25:23;;;;;;;;;;;;;;;;;;5090549;28;20120;-75
2022/09/29 09:27:56;;;;;;;0.85;0.70;;;;;;;;;;5106163;28;19963;-75
2022/09/29 09:30:24;;;;;;;3.22;1.30;;;;;;;;;;5107588;28;20048;-76
2022/09/29 09:32:53;;;;;;;0.88;0.68;;;;;;;;;;5107505;28;20050;-76
2022/09/29 09:35:39;;;;;;;0.90;0.80;;;;;;;;;;5107704;28;20558;-75
2022/09/29 09:38:22;;;;;;;1.80;0.80;;;;;;;;;;5109075;28;20122;-75
2022/09/29 09:40:51;;;;;;;0.60;0.50;;;;;;;;;;5107771;28;20045;-76
2022/09/29 09:43:25;;;;;;;0.90;0.85;;;;;;;;;;5107966;28;20126;-75
2022/09/29 09:45:59;;;;;;;1.80;0.73;;;;;;;;;;5105388;28;20100;-76
2022/09/29 09:48:40;;;;;;;2.58;0.82;;;;;;;;;;5107482;28;20043;-75
2022/09/29 09:51:21;;;;;;;1.48;0.47;;;;;;;;;;5109460;28;20591;-76
2022/09/29 09:53:49;;;;;;;1.30;0.40;;;;;;;;;;5094729;28;20512;-75
2022/09/29 09:56:29;;;;;;;1.05;0.63;;;;;;;;;;5088201;28;20071;-76
2022/09/29 09:59:10;;;;;;;0.40;0.40;;;;;;;;;;5087931;28;20524;-76
2022/09/29 10:01:38;;;;;;;0.75;0.60;;;;;;;;;;5069582;28;20040;-76
2022/09/29 10:04:05;;;;;;;1.10;0.70;;;;;;;;;;5086490;28;20040;-76
2022/09/29 10:06:33;;;;;;;0.68;0.68;;;;;;;;;;5086014;28;20059;-76
2022/09/29 10:09:00;;;;;;;1.25;0.55;;;;;;;;;;5086790;28;20166;-76
2022/09/29 10:11:30;;;;;;;1.25;0.57;;;;;;;;;;5088412;28;20051;-75
2022/09/29 10:14:00;;;;;;;0.70;0.70;;;;;;;;;;5087729;28;20051;-75
2022/09/29 10:16:33;;;;;;;0.65;0.65;;;;;;;;;;5088778;28;20040;-75
2022/09/29 10:19:00;;;;;;;0.70;0.70;;;;;;;;;;5087648;28;20036;-76
2022/09/29 10:21:28;;;;;;;0.60;0.60;;;;;;;;;;5087762;28;20497;-76
2022/09/29 10:23:56;;;;;;;2.05;0.80;;;;;;;;;;5087069;28;20527;-76
2022/09/29 10:26:44;;;;;;;1.02;0.90;;;;;;;;;;5087538;28;20051;-76
2022/09/29 10:29:23;;;;;;;1.05;0.70;;;;;;;;;;5087439;28;20048;-76
2022/09/29 10:32:00;;;;;;;1.23;0.80;;;;;;;;;;5070216;28;20072;-76
2022/09/29 10:34:29;;;;;;;0.75;0.75;;;;;;;;;;5086277;28;20060;-75
2022/09/29 10:36:59;;;;;;;1.17;0.80;;;;;;;;;;5086399;28;20490;-75
2022/09/29 10:39:42;;;;;;;3.05;0.80;;;;;;;;;;5085132;28;20044;-74
2022/09/29 10:42:15;;;;;;;1.60;0.80;;;;;;;;;;5083518;28;20125;-76
2022/09/29 10:44:43;;;;;;;0.75;0.60;;;;;;;;;;5085242;28;20484;-76
2022/09/29 10:47:14;;;;;;;2.58;0.80;;;;;;;;;;5084307;28;20048;-76
2022/09/29 10:49:42;;;;;;;1.77;0.60;;;;;;;;;;5084191;28;20048;-76
2022/09/29 10:52:16;;;;;;;0.60;0.60;;;;;;;;;;5102408;28;20047;-75
2022/09/29 10:54:55;;;;;;;7.03;6.32;;;;;;;;;;5105311;28;20096;-76
2022/09/29 10:57:24;;;;;;;1.10;1.00;;;;;;;;;;5104498;28;20036;-78
2022/09/29 10:59:53;;;;;;;0.75;0.50;;;;;;;;;;5103993;28;20504;-75
2022/09/29 11:02:37;;;;;;;0.68;0.60;;;;;;;;;;5104478;28;20043;-76
2022/09/29 11:05:19;;;;;;;1.10;0.70;;;;;;;;;;5106013;28;20381;-74
2022/09/29 11:07:48;;;;;;;0.85;0.80;;;;;;;;;;5121705;28;20059;-80
2022/09/29 11:10:29;;;;;;;1.17;0.70;;;;;;;;;;5106249;28;20067;-75
2022/09/29 11:12:59;;;;;;;1.75;0.98;;;;;;;;;;5103856;28;20131;-74
2022/09/29 11:15:28;;;;;;;1.00;0.80;;;;;;;;;;5104921;28;20052;-76
2022/09/29 11:17:56;;;;;;;1.35;0.80;;;;;;;;;;5086712;28;20051;-76
2022/09/29 11:20:26;;;;;;;1.45;0.82;;;;;;;;;;5105476;28;20573;-76
2022/09/29 11:23:13;;;;;;;0.85;0.85;;;;;;;;;;5081123;28;20056;-75
2022/09/29 11:25:59;;;;;;;1.45;0.93;;;;;;;;;;5105278;28;20134;-75
2022/09/29 11:28:29;;;;;;;3.63;0.90;;;;;;;;;;5105753;28;20573;-76
2022/09/29 11:31:11;;;;;;;1.25;0.90;;;;;;;;;;5101180;28;20516;-75
2022/09/29 11:33:52;;;;;;;0.82;0.82;;;;;;;;;;5103785;28;20181;-76
2022/09/29 11:36:27;;;;;;;1.17;0.80;;;;;;;;;;5105333;28;20046;-76
2022/09/29 11:39:10;;;;;;;0.70;0.70;;;;;;;;;;5098449;28;20051;-77
2022/09/29 11:41:53;;;;;;;7.18;1.10;;;;;;;;;;5098220;28;20098;-75
2022/09/29 11:44:28;;;;;;;2.05;0.88;;;;;;;;;;5106172;27;20098;-74
2022/09/29 11:47:02;;;;;;;4.85;1.45;;;;;;;;;;5107725;28;20117;-75
2022/09/29 11:49:49;;;;;;;1.08;0.93;;;;;;;;;;5108487;28;20097;-76
2022/09/29 11:52:34;;;;;;;0.80;0.73;;;;;;;;;;5106141;28;20067;-75
2022/09/29 11:55:05;;;;;;;2.78;0.80;;;;;;;;;;5107727;28;20043;-76
2022/09/29 11:57:55;;;;;;;1.30;0.77;;;;;;;;;;5105919;28;20054;-76
2022/09/29 12:00:31;;;;;;;1.85;0.98;;;;;;;;;;5080208;28;20135;-83
2022/09/29 12:03:17;;;;;;;2.47;0.75;;;;;;;;;;5107149;28;20035;-76
2022/09/29 12:05:48;;;;;;;0.93;0.80;;;;;;;;;;5125233;27;20047;-76
2022/09/29 12:08:34;;;;;;;0.80;0.80;;;;;;;;;;5109162;28;20075;-76
2022/09/29 12:11:09;;;;;;;3.78;2.38;;;;;;;;;;5112142;28;20051;-81
2022/09/29 12:14:25;;;;;;;2.28;1.00;;;;;;;;;;5110904;28;20143;-76
2022/09/29 12:16:56;;;;;;;1.77;1.67;;;;;;;;;;5055580;28;20055;-75
2022/09/29 12:19:27;;;;;;;1.05;1.00;;;;;;;;;;5094922;28;20055;-75
2022/09/29 12:21:56;;;;;;;1.07;0.93;;;;;;;;;;5111325;28;20122;-76
2022/09/29 12:24:23;;;;;;;0.85;0.85;;;;;;;;;;5110703;28;20727;-76
2022/09/29 12:26:51;;;;;;;0.88;0.80;;;;;;;;;;5110441;28;20043;-76
2022/09/29 12:29:31;;;;;;;2.30;1.73;;;;;;;;;;5109570;28;20050;-76
2022/09/29 12:32:01;;;;;;;1.63;1.00;;;;;;;;;;5111002;28;20070;-78
2022/09/29 12:34:32;;;;;;;1.30;1.20;;;;;;;;;;5109332;28;20097;-76
2022/09/29 12:37:02;;;;;;;;;;;;;;;;;;5126668;27;20150;-75
2022/09/29 12:39:48;;;;;;;4.28;1.00;;;;;;;;;;5111302;28;19945;-76
2022/09/29 12:42:20;;;;;;;4.57;1.13;;;;;;;;;;5111312;28;20534;-76
2022/09/29 12:44:47;;;;;;;;;;;;;;;;;;5110529;28;20035;-76
2022/09/29 12:47:15;;;;;;;1.20;1.10;;;;;;;;;;5109804;28;20041;-76
2022/09/29 12:49:56;;;;;;;2.35;1.20;;;;;;;;;;5124938;27;20040;-75
2022/09/29 12:52:28;;;;;;;1.15;1.08;;;;;;;;;;5107393;28;20054;-75
2022/09/29 12:54:58;;;;;;;1.05;1.05;;;;;;;;;;5107182;28;20044;-76
2022/09/29 12:57:40;;;;;;;1.20;1.05;;;;;;;;;;5107886;28;20035;-76
2022/09/29 13:00:12;;;;;;;4.03;1.00;;;;;;;;;;5108835;28;20509;-76
2022/09/29 13:02:59;;;;;;;5.35;1.40;;;;;;;;;;5109699;28;20032;-76
2022/09/29 13:05:46;;;;;;;1.35;1.00;;;;;;;;;;5108522;28;20040;-75
2022/09/29 13:08:22;;;;;;;3.00;1.70;;;;;;;;;;5108889;28;20081;-76
2022/09/29 13:11:09;;;;;;;2.00;1.27;;;;;;;;;;5091242;28;20142;-75
2022/09/29 13:13:49;;;;;;;1.65;1.30;;;;;;;;;;5109519;28;20304;-76
2022/09/29 13:16:27;;;;;;;1.77;1.15;;;;;;;;;;5107153;28;20039;-76
2022/09/29 13:18:57;;;;;;;2.13;1.00;;;;;;;;;;5108128;28;20455;-76
2022/09/29 13:21:48;;;;;;;1.60;1.27;;;;;;;;;;5109559;28;20455;-76
2022/09/29 13:24:35;;;;;;;1.00;1.00;;;;;;;;;;5109146;28;20942;-74
2022/09/29 13:27:02;;;;;;;2.65;1.30;;;;;;;;;;5106358;28;20039;-74
2022/09/29 13:29:31;;;;;;;3.08;1.30;;;;;;;;;;5096731;28;20667;-73
2022/09/29 13:31:58;;;;;;;1.42;1.33;;;;;;;;;;5096413;28;20071;-75
2022/09/29 13:34:37;;;;;;;0.90;0.90;;;;;;;;;;5108914;28;20126;-74
2022/09/29 13:37:24;;;;;;;1.95;1.85;;;;;;;;;;5108105;28;20496;-75
2022/09/29 13:39:51;;;;;;;3.08;2.88;;;;;;;;;;5109046;28;20070;-75
2022/09/29 13:42:26;;;;;;;6.22;2.17;;;;;;;;;;5108876;28;20036;-75
2022/09/29 13:45:14;;;;;;;3.03;1.70;;;;;;;;;;5106210;28;20128;-74
2022/09/29 13:47:46;;;;;;;1.88;1.67;;;;;;;;;;5089613;28;20083;-75
2022/09/29 13:50:13;;;;;;;;;;;;;;;;;;5103911;28;20416;-74
2022/09/29 13:52:47;;;;;;;2.42;2.20;;;;;;;;;;5105922;28;20321;-74
2022/09/29 13:55:33;;;;;;;2.92;2.30;;;;;;;;;;5104140;28;20048;-74
2022/09/29 13:58:01;;;;;;;3.75;2.17;;;;;;;;;;5100202;28;20085;-75
2022/09/29 14:00:30;;;;;;;3.35;2.20;;;;;;;;;;5107101;28;20099;-74
2022/09/29 14:03:06;;;;;;;4.10;2.50;;;;;;;;;;5106879;28;20059;-75
2022/09/29 14:05:33;;;;;;;2.20;2.00;;;;;;;;;;5106913;28;20040;-75
2022/09/29 14:08:12;;;;;;;2.97;2.78;;;;;;;;;;5105112;28;20135;-74
2022/09/29 14:10:42;;;;;;;2.25;2.15;;;;;;;;;;5103411;28;20094;-74
2022/09/29 14:13:18;;;;;;;1.65;1.60;;;;;;;;;;5105819;28;20097;-74
2022/09/29 14:15:47;;;;;;;2.40;1.52;;;;;;;;;;5102822;28;20043;-74
2022/09/29 14:18:19;;;;;;;3.40;1.05;;;;;;;;;;5105961;28;20043;-74
2022/09/29 14:21:03;;;;;;;1.55;1.27;;;;;;;;;;5105386;27;20116;-74
2022/09/29 14:23:59;;;;;;;1.33;1.20;;;;;;;;;;5105829;28;20042;-74
2022/09/29 14:26:46;;;;;;;0.98;0.98;;;;;;;;;;5087678;28;20402;-74
2022/09/29 14:29:22;;;;;;;2.35;1.30;;;;;;;;;;5106378;28;20116;-73
2022/09/29 14:31:51;;;;;;;2.92;2.72;;;;;;;;;;5107578;28;20131;-75
2022/09/29 14:34:22;;;;;;;1.85;1.50;;;;;;;;;;5089967;28;20178;-75
2022/09/29 14:36:51;;;;;;;2.35;1.35;;;;;;;;;;5107829;28;20048;-75
2022/09/29 14:39:19;;;;;;;2.85;1.85;;;;;;;;;;5109416;28;20039;-75
2022/09/29 14:41:53;;;;;;;4.60;1.77;;;;;;;;;;5106453;28;20048;-75
2022/09/29 14:44:23;;;;;;;2.00;1.90;;;;;;;;;;5106900;28;20202;-74
2022/09/29 14:53:09;;;;;;;3.22;1.95;;;;;;;;;;5107011;28;20067;-75
2022/09/29 14:55:36;;;;;;;1.45;1.35;;;;;;;;;;5108190;28;20047;-74
2022/09/29 14:58:13;;;;;;;2.95;1.98;;;;;;;;;;5087390;28;20048;-75
2022/09/29 15:00:46;;;;;;;1.90;1.80;;;;;;;;;;5086676;28;20125;-74
2022/09/29 15:03:26;;;;;;;3.03;2.00;;;;;;;;;;5096526;28;20155;-75
2022/09/29 15:06:12;;;;;;;1.90;1.80;;;;;;;;;;5104620;28;20078;-75
2022/09/29 15:08:39;;;;;;;2.53;2.10;;;;;;;;;;5106423;28;20459;-75
2022/09/29 15:11:26;;;;;;;2.95;2.00;;;;;;;;;;5111246;28;20050;-74
2022/09/29 15:13:54;;;;;;;3.47;2.20;;;;;;;;;;5106086;28;20039;-76
2022/09/29 15:16:25;;;;;;;2.88;2.30;;;;;;;;;;5109063;28;20811;-75
2022/09/29 15:18:59;;;;;;;3.88;2.00;;;;;;;;;;5109666;28;20039;-74
2022/09/29 15:21:36;;;;;;;4.70;2.35;;;;;;;;;;5091618;28;20458;-75